Terminal Aerodrome Forecast
Issued by NWS

Home | Current Version | Previous Version | Text Only | Print | Product List | Glossary On
Versions: 1 2 3 4 5 6 7 8 9 10 11 12 13 14 15 16 17 18 19 20 21
000
FTUS46 KMFR 221740
TAFRBG
TAF
KRBG 221740Z 2218/2318 17003KT P6SM SCT025 BKN030
     FM222000 36010KT P6SM SCT025
     FM230300 VRB03KT P6SM SCT040
     FM231200 02001KT 6SM BR OVC003
     FM231500 15002KT 1/4SM FG OVC001=

USA.gov is the U.S. government's official web portal to all federal, state and local government web resources and services.